Time;durP1;ratioP1;P1;durP2;ratioP2;P2;SDS_P1;SDS_P2;PMS_P1;PMS_P2;Temp;Humidity;BMP_temperature;BMP_pressure;BME280_temperature;BME280_humidity;BME280_pressure;Samples;Min_cycle;Max_cycle;Signal;HPM_P1;HPM_P2
2023/01/10 00:00:33;;;;;;;16.80;2.70;;;8.40;99.90;;;;;;6336925;22;37817;-83
2023/01/10 00:03:02;;;;;;;;;;;8.40;99.90;;;;;;6339437;22;38362;-81
2023/01/10 00:05:30;;;;;;;22.07;3.47;;;8.40;99.90;;;;;;6312348;22;47967;-82
2023/01/10 00:07:57;;;;;;;22.23;3.67;;;8.30;99.90;;;;;;6312178;22;38020;-82
2023/01/10 00:10:34;;;;;;;27.07;3.37;;;8.30;99.90;;;;;;6310726;22;36605;-82
2023/01/10 00:15:49;;;;;;;28.60;3.10;;;8.40;99.90;;;;;;6337186;22;49772;-82
2023/01/10 00:18:32;;;;;;;21.47;3.40;;;8.40;99.90;;;;;;6309445;22;38206;-82
2023/01/10 00:20:58;;;;;;;16.35;3.17;;;8.40;99.90;;;;;;6312101;22;36577;-82
2023/01/10 00:23:27;;;;;;;18.40;2.90;;;8.50;99.90;;;;;;6338341;22;39527;-82
2023/01/10 00:25:53;;;;;;;19.87;2.87;;;8.60;99.90;;;;;;6305465;22;39261;-82
2023/01/10 00:31:03;;;;;;;20.33;3.33;;;8.70;99.90;;;;;;6335907;22;20071;-82
2023/01/10 00:33:44;;;;;;;20.50;3.40;;;8.70;99.90;;;;;;6311206;22;48688;-83
2023/01/10 00:36:17;;;;;;;21.10;3.17;;;8.70;99.90;;;;;;6333424;22;40150;-81
2023/01/10 00:38:46;;;;;;;17.37;2.97;;;8.70;99.90;;;;;;6340131;22;39572;-82
2023/01/10 00:43:58;;;;;;;20.50;3.47;;;8.80;99.90;;;;;;6323767;22;39073;-82
2023/01/10 00:46:33;;;;;;;19.30;3.70;;;8.80;99.90;;;;;;6337988;22;40373;-82
2023/01/10 00:48:59;;;;;;;23.67;3.47;;;8.90;99.90;;;;;;6312931;22;37881;-82
2023/01/10 00:51:27;;;;;;;20.93;3.93;;;8.90;99.90;;;;;;6338774;22;39160;-82
2023/01/10 00:53:56;;;;;;;18.77;3.47;;;8.90;99.90;;;;;;6322726;22;37993;-81
2023/01/10 00:56:23;;;;;;;27.73;4.03;;;8.90;99.90;;;;;;6277423;22;39011;-82
2023/01/10 00:58:52;;;;;;;17.77;3.03;;;9.00;99.90;;;;;;6313023;22;38453;-83
2023/01/10 01:01:22;;;;;;;17.47;3.40;;;9.00;99.90;;;;;;6300451;22;37577;-80
2023/01/10 01:03:48;;;;;;;21.87;3.40;;;8.90;99.90;;;;;;6339090;22;38257;-81
2023/01/10 01:06:44;;;;;;;20.40;3.97;;;9.00;99.90;;;;;;6310186;22;37468;-81
2023/01/10 01:09:11;;;;;;;22.30;4.03;;;9.00;99.90;;;;;;6298630;22;38701;-81
2023/01/10 01:11:37;;;;;;;14.57;3.23;;;9.00;99.90;;;;;;6319370;22;39923;-82
2023/01/10 01:14:03;;;;;;;26.83;3.53;;;9.00;99.90;;;;;;6325493;22;37027;-81
2023/01/10 01:16:30;;;;;;;17.70;3.40;;;9.00;99.90;;;;;;6319174;22;40198;-82
2023/01/10 01:18:57;;;;;;;22.93;3.23;;;9.00;99.90;;;;;;6284877;22;38456;-82
2023/01/10 01:21:27;;;;;;;14.77;2.93;;;9.00;99.90;;;;;;6314624;22;39137;-82
2023/01/10 01:23:57;;;;;;;23.60;3.87;;;9.00;99.90;;;;;;6310973;22;37679;-82
2023/01/10 01:26:24;;;;;;;24.50;3.83;;;9.00;99.90;;;;;;6310222;22;40479;-82
2023/01/10 01:28:50;;;;;;;33.83;4.87;;;9.00;99.90;;;;;;6339336;22;39764;-82
2023/01/10 01:31:17;;;;;;;27.97;3.77;;;9.00;99.90;;;;;;6310510;22;38429;-81
2023/01/10 01:36:19;;;;;;;22.43;3.47;;;9.00;99.90;;;;;;6313415;22;20055;-82
2023/01/10 01:38:46;;;;;;;15.33;3.30;;;8.90;99.90;;;;;;6311714;22;38778;-82
2023/01/10 01:44:07;;;;;;;23.33;3.43;;;9.00;99.90;;;;;;6308999;22;39044;-82
2023/01/10 01:46:39;;;;;;;20.50;3.87;;;9.00;99.90;;;;;;6310575;22;48223;-82
2023/01/10 01:49:17;;;;;;;26.83;6.05;;;9.00;99.90;;;;;;6274016;22;38469;-82
2023/01/10 01:51:48;;;;;;;28.67;4.67;;;9.00;99.90;;;;;;6335503;22;38865;-81
2023/01/10 01:54:18;;;;;;;22.20;3.87;;;9.10;99.90;;;;;;6309419;22;37502;-81
2023/01/10 01:57:09;;;;;;;30.80;5.13;;;9.10;99.90;;;;;;6312447;22;37870;-82
2023/01/10 02:05:14;;;;;;;27.10;5.23;;;9.10;99.90;;;;;;6293827;22;20054;-78
2023/01/10 02:08:10;;;;;;;28.67;4.70;;;9.10;99.90;;;;;;6323882;22;49592;-78
2023/01/10 02:11:27;;;;;;;27.98;3.95;;;9.10;99.90;;;;;;6266844;22;48095;-79
2023/01/10 02:14:21;;;;;;;;;;;9.10;99.90;;;;;;6296003;22;50463;-80
2023/01/10 02:17:40;;;;;;;26.00;4.70;;;9.00;99.90;;;;;;6286743;22;38942;-79
2023/01/10 02:20:25;;;;;;;20.83;4.27;;;9.00;99.90;;;;;;6285530;22;39777;-79
2023/01/10 02:23:57;;;;;;;27.50;4.00;;;9.00;99.90;;;;;;6332721;22;39151;-79
2023/01/10 02:26:42;;;;;;;25.38;4.00;;;9.00;99.90;;;;;;6337267;22;38116;-79
2023/01/10 02:30:11;;;;;;;21.50;4.30;;;9.00;99.90;;;;;;6279584;22;48881;-80
2023/01/10 02:32:59;;;;;;;24.52;3.60;;;9.00;99.90;;;;;;6121814;22;50265;-78
2023/01/10 02:35:53;;;;;;;27.73;5.40;;;9.00;99.90;;;;;;6291023;22;38979;-78
2023/01/10 02:38:54;;;;;;;19.67;3.87;;;9.00;99.90;;;;;;6280942;22;37206;-77
2023/01/10 02:41:41;;;;;;;24.90;4.40;;;9.00;99.90;;;;;;6292510;22;37310;-78
2023/01/10 02:44:32;;;;;;;24.30;4.23;;;9.00;99.90;;;;;;6251863;22;37971;-78
2023/01/10 02:47:03;;;;;;;22.00;4.17;;;9.00;99.90;;;;;;6265181;22;37839;-79
2023/01/10 02:49:40;;;;;;;27.77;4.30;;;9.00;99.90;;;;;;6287214;22;49030;-79
2023/01/10 02:52:09;;;;;;;28.50;4.77;;;8.90;99.90;;;;;;6278810;22;36764;-80
2023/01/10 02:54:41;;;;;;;22.83;4.20;;;8.90;99.90;;;;;;6293848;22;38301;-80
2023/01/10 02:57:27;;;;;;;21.80;4.45;;;8.90;99.90;;;;;;6210208;22;37683;-80
2023/01/10 03:00:23;;;;;;;21.97;4.37;;;8.80;99.90;;;;;;6301741;22;38320;-79
2023/01/10 03:03:32;;;;;;;30.37;4.60;;;8.80;99.90;;;;;;6304084;22;49604;-79
2023/01/10 03:06:20;;;;;;;21.40;4.33;;;8.80;99.90;;;;;;6241908;22;47564;-79
2023/01/10 03:09:06;;;;;;;23.43;3.80;;;8.80;99.90;;;;;;6247841;22;47828;-79
2023/01/10 03:11:43;;;;;;;25.17;4.00;;;8.90;99.90;;;;;;6241522;22;47890;-78
2023/01/10 03:14:22;;;;;;;20.37;3.63;;;8.90;99.90;;;;;;6265077;22;37769;-78
2023/01/10 03:17:05;;;;;;;23.47;4.20;;;9.00;99.90;;;;;;6242081;22;40305;-79
2023/01/10 03:19:46;;;;;;;;;;;8.90;99.90;;;;;;6253981;22;49623;-79
2023/01/10 03:22:14;;;;;;;23.67;4.10;;;8.90;99.90;;;;;;6253351;22;37999;-79
2023/01/10 03:24:54;;;;;;;26.37;4.83;;;8.90;99.90;;;;;;6252406;22;38423;-79
2023/01/10 03:27:59;;;;;;;27.70;5.00;;;8.90;99.90;;;;;;6233543;22;39310;-79
2023/01/10 03:30:46;;;;;;;20.17;4.20;;;8.90;99.90;;;;;;6251533;22;37700;-79
2023/01/10 03:33:22;;;;;;;32.07;4.97;;;9.00;99.90;;;;;;6260350;22;39961;-79
2023/01/10 03:36:03;;;;;;;26.10;4.47;;;8.90;99.90;;;;;;6270766;22;38084;-79
2023/01/10 03:38:47;;;;;;;28.10;5.03;;;8.90;99.90;;;;;;6251312;22;49378;-78
2023/01/10 03:41:46;;;;;;;19.17;4.17;;;8.90;99.90;;;;;;6267599;22;41461;-78
2023/01/10 03:44:45;;;;;;;32.37;6.10;;;8.90;99.90;;;;;;6256396;22;36823;-79
2023/01/10 03:47:26;;;;;;;29.03;4.03;;;8.90;99.90;;;;;;6269566;22;37917;-79
2023/01/10 03:50:00;;;;;;;27.40;5.05;;;8.90;99.90;;;;;;6273387;22;39350;-79
2023/01/10 03:52:31;;;;;;;37.63;4.87;;;8.90;99.90;;;;;;6271870;22;39764;-79
2023/01/10 03:54:59;;;;;;;30.00;4.40;;;8.90;99.90;;;;;;6270111;22;37201;-78
2023/01/10 03:57:29;;;;;;;32.33;4.60;;;8.80;99.90;;;;;;6255137;22;39209;-79
2023/01/10 03:59:59;;;;;;;24.73;5.10;;;8.80;99.90;;;;;;6268047;22;39242;-78
2023/01/10 04:02:37;;;;;;;38.20;5.43;;;8.90;99.90;;;;;;6243973;22;39150;-78
2023/01/10 04:05:11;;;;;;;25.90;5.17;;;8.90;99.90;;;;;;6268106;22;39283;-79
2023/01/10 04:07:40;;;;;;;35.17;4.80;;;8.80;99.90;;;;;;6263977;22;48889;-79
2023/01/10 04:10:09;;;;;;;31.67;5.47;;;8.80;99.90;;;;;;6293443;22;37740;-79
2023/01/10 04:12:38;;;;;;;23.20;4.00;;;8.80;99.90;;;;;;6256511;22;48630;-78
2023/01/10 04:15:05;;;;;;;35.77;5.87;;;8.70;99.90;;;;;;6269269;22;38354;-78
2023/01/10 04:17:40;;;;;;;33.30;4.50;;;8.60;99.90;;;;;;6256498;22;47769;-79
2023/01/10 04:20:14;;;;;;;33.13;4.87;;;8.50;99.90;;;;;;6209692;22;38331;-79
2023/01/10 04:23:06;;;;;;;35.87;4.73;;;8.50;99.90;;;;;;6210701;22;49398;-79
2023/01/10 04:25:33;;;;;;;34.60;4.93;;;8.50;99.90;;;;;;6175128;22;47958;-78
2023/01/10 04:28:06;;;;;;;30.73;5.43;;;8.40;99.90;;;;;;6237165;22;37707;-79
2023/01/10 04:30:43;;;;;;;32.87;5.43;;;8.40;99.90;;;;;;6218533;22;48856;-79
2023/01/10 04:33:27;;;;;;;29.73;4.63;;;8.30;99.90;;;;;;6218508;22;39461;-78
2023/01/10 04:35:57;;;;;;;26.03;5.03;;;8.20;99.90;;;;;;6202398;22;40973;-79
2023/01/10 04:38:24;;;;;;;39.30;5.30;;;8.10;99.90;;;;;;6204127;22;37040;-79
2023/01/10 04:40:56;;;;;;;26.37;4.33;;;8.00;99.90;;;;;;6185105;23;38692;-79
2023/01/10 04:43:26;;;;;;;33.33;4.38;;;8.00;99.90;;;;;;6237017;22;38070;-78
2023/01/10 04:45:53;;;;;;;34.27;4.93;;;7.90;99.90;;;;;;6208129;23;38260;-79
2023/01/10 04:48:20;;;;;;;29.13;5.50;;;7.90;99.90;;;;;;6225207;22;37780;-79
2023/01/10 04:50:57;;;;;;;24.63;4.00;;;7.90;99.90;;;;;;6202154;22;39970;-80
2023/01/10 04:53:28;;;;;;;36.43;5.80;;;8.00;99.90;;;;;;6207518;22;38488;-79
2023/01/10 04:56:05;;;;;;;35.33;4.80;;;8.00;99.90;;;;;;6217604;22;39953;-79
2023/01/10 04:58:37;;;;;;;24.37;4.07;;;8.10;99.90;;;;;;6206454;23;47794;-78
2023/01/10 05:01:11;;;;;;;37.53;4.75;;;8.10;99.90;;;;;;6209241;23;39431;-78
2023/01/10 05:03:40;;;;;;;32.27;4.00;;;8.10;99.90;;;;;;6246343;22;39997;-78
2023/01/10 05:06:11;;;;;;;31.50;4.77;;;8.10;99.90;;;;;;6265608;22;38235;-78
2023/01/10 05:08:39;;;;;;;24.33;3.65;;;8.10;99.90;;;;;;6269636;22;38003;-79
2023/01/10 05:11:11;;;;;;;24.70;4.30;;;8.10;99.90;;;;;;6239399;22;39133;-80
2023/01/10 05:13:42;;;;;;;26.55;4.32;;;8.10;99.90;;;;;;6269439;22;39711;-79
2023/01/10 05:16:09;;;;;;;31.07;5.90;;;8.00;99.90;;;;;;6229637;22;39206;-78
2023/01/10 05:18:36;;;;;;;17.73;4.40;;;8.00;99.90;;;;;;6299257;22;38472;-78
2023/01/10 05:21:12;;;;;;;34.90;5.23;;;8.10;99.90;;;;;;6289776;22;39066;-78
2023/01/10 05:23:39;;;;;;;34.70;4.87;;;8.10;99.90;;;;;;6288036;22;37767;-79
2023/01/10 05:26:12;;;;;;;33.33;4.97;;;8.10;99.90;;;;;;6286723;22;37246;-79
2023/01/10 05:28:39;;;;;;;31.93;5.40;;;8.10;99.90;;;;;;6290832;22;36857;-79
2023/01/10 05:31:21;;;;;;;30.87;5.57;;;8.10;99.90;;;;;;6281517;22;37816;-78
2023/01/10 05:33:50;;;;;;;29.33;4.80;;;8.10;99.90;;;;;;6295048;22;38359;-78
2023/01/10 05:36:19;;;;;;;26.83;4.53;;;8.20;99.90;;;;;;6289456;22;37264;-78
2023/01/10 05:38:46;;;;;;;26.93;4.30;;;8.20;99.90;;;;;;6289228;22;37269;-78
2023/01/10 05:41:13;;;;;;;28.70;4.37;;;8.20;99.90;;;;;;6283769;22;38302;-78
2023/01/10 05:43:40;;;;;;;30.73;4.57;;;8.20;99.90;;;;;;6290897;22;37439;-78
2023/01/10 05:46:07;;;;;;;30.30;5.17;;;8.20;99.90;;;;;;6287123;22;37733;-78
2023/01/10 05:48:35;;;;;;;35.03;4.77;;;8.10;99.90;;;;;;6295300;22;37585;-80
2023/01/10 05:51:02;;;;;;;32.13;6.20;;;8.10;99.90;;;;;;6284559;22;38294;-78
2023/01/10 05:53:29;;;;;;;33.10;5.23;;;8.00;99.90;;;;;;6289392;22;48835;-79
2023/01/10 05:56:01;;;;;;;30.20;5.53;;;7.90;99.90;;;;;;6291297;22;38274;-77
2023/01/10 05:58:31;;;;;;;39.10;5.87;;;7.80;99.90;;;;;;6294053;22;48107;-79
2023/01/10 06:01:01;;;;;;;39.97;5.80;;;7.70;99.90;;;;;;6283010;22;38802;-79
2023/01/10 06:03:30;;;;;;;27.87;4.47;;;7.80;99.90;;;;;;6277909;22;37967;-79
2023/01/10 06:06:04;;;;;;;33.97;5.33;;;7.80;99.90;;;;;;6293582;22;37681;-79
2023/01/10 06:08:42;;;;;;;27.87;4.67;;;7.80;99.90;;;;;;6294489;22;49497;-80
2023/01/10 06:11:11;;;;;;;34.37;4.50;;;7.90;99.90;;;;;;6291844;22;39091;-80
2023/01/10 06:13:40;;;;;;;32.60;5.23;;;7.80;99.90;;;;;;6327466;22;39976;-79
2023/01/10 06:16:08;;;;;;;29.47;5.60;;;7.80;99.90;;;;;;6295563;22;37065;-81
2023/01/10 06:18:35;;;;;;;31.40;5.17;;;7.80;99.90;;;;;;6299408;22;38026;-79
2023/01/10 06:21:02;;;;;;;25.07;5.07;;;7.70;99.90;;;;;;6303110;22;41652;-79
2023/01/10 06:23:29;;;;;;;38.27;5.83;;;7.70;99.90;;;;;;6294892;22;48068;-79
2023/01/10 06:25:56;;;;;;;28.87;4.77;;;7.70;99.90;;;;;;6294000;22;37135;-79
2023/01/10 06:28:23;;;;;;;29.30;5.27;;;7.60;99.90;;;;;;6291481;22;36743;-80
2023/01/10 06:30:51;;;;;;;33.43;5.23;;;7.50;99.90;;;;;;6324460;22;38959;-79
2023/01/10 06:33:21;;;;;;;31.83;5.03;;;7.50;99.90;;;;;;6325818;22;38848;-79
2023/01/10 06:35:48;;;;;;;30.93;4.87;;;7.50;99.90;;;;;;6299078;22;37536;-79
2023/01/10 06:38:27;;;;;;;35.20;5.67;;;7.50;99.90;;;;;;6324228;22;37994;-80
2023/01/10 06:40:54;;;;;;;29.27;5.03;;;7.50;99.90;;;;;;6299482;22;37854;-79
2023/01/10 06:43:20;;;;;;;31.20;5.07;;;7.50;99.90;;;;;;6287841;22;38658;-80
2023/01/10 06:45:47;;;;;;;25.03;4.20;;;7.50;99.90;;;;;;6280425;22;39144;-79
2023/01/10 06:48:15;;;;;;;30.47;4.87;;;7.40;99.90;;;;;;6327025;22;37303;-80
2023/01/10 06:50:42;;;;;;;36.20;4.83;;;7.40;99.90;;;;;;6334562;22;39555;-80
2023/01/10 06:53:19;;;;;;;26.73;4.43;;;7.30;99.90;;;;;;6323086;22;39327;-80
2023/01/10 06:56:35;;;;;;;35.90;4.77;;;7.30;99.90;;;;;;6329159;22;39186;-79
2023/01/10 06:59:04;;;;;;;43.50;5.27;;;7.20;99.90;;;;;;6248921;22;36801;-81
2023/01/10 07:14:02;;;;;;;35.53;5.53;;;6.70;99.90;;;;;;6301919;22;20004;-80
2023/01/10 07:16:28;;;;;;;26.83;4.10;;;6.60;99.90;;;;;;6312880;22;38601;-81
2023/01/10 07:21:24;;;;;;;27.93;4.70;;;6.50;99.90;;;;;;6336100;22;20011;-80
2023/01/10 07:23:50;;;;;;;43.60;6.23;;;6.40;99.90;;;;;;6338795;22;40284;-79
2023/01/10 07:29:20;;;;;;;38.00;5.87;;;6.30;99.90;;;;;;6242848;22;20004;-80
2023/01/10 07:31:53;;;;;;;33.47;5.23;;;6.40;99.90;;;;;;6342758;22;38650;-80
2023/01/10 07:37:03;;;;;;;30.03;5.13;;;6.40;99.90;;;;;;6320505;22;20008;-81
2023/01/10 07:42:09;;;;;;;38.53;5.80;;;6.40;99.90;;;;;;6330871;22;20055;-81
2023/01/10 07:44:43;;;;;;;38.83;6.23;;;6.50;99.90;;;;;;6342950;22;40243;-81
2023/01/10 07:47:22;;;;;;;26.37;5.57;;;6.50;99.90;;;;;;6314481;22;38418;-81
2023/01/10 07:49:48;;;;;;;41.27;6.40;;;6.50;99.90;;;;;;6314909;22;37704;-81
2023/01/10 07:52:14;;;;;;;36.93;6.43;;;6.40;99.90;;;;;;6312353;22;37583;-81
2023/01/10 07:54:40;;;;;;;33.93;5.07;;;6.40;99.90;;;;;;6313534;22;38972;-80
2023/01/10 07:57:08;;;;;;;27.40;4.67;;;6.40;99.90;;;;;;6313948;22;38564;-81
2023/01/10 07:59:34;;;;;;;43.27;6.13;;;6.40;99.90;;;;;;6338892;22;39201;-82
2023/01/10 08:02:01;;;;;;;29.17;5.50;;;6.40;99.90;;;;;;6313357;22;36698;-81
2023/01/10 08:04:43;;;;;;;31.03;5.23;;;6.30;99.90;;;;;;6313091;22;48738;-83
2023/01/10 08:07:09;;;;;;;35.93;6.63;;;6.40;99.90;;;;;;6341527;22;38961;-80
2023/01/10 08:13:17;;;;;;;38.03;5.03;;;6.40;99.90;;;;;;6340843;22;50611;-81
2023/01/10 08:15:58;;;;;;;34.40;5.63;;;6.40;99.90;;;;;;6341070;22;49998;-81
2023/01/10 08:18:26;;;;;;;34.67;6.37;;;6.50;99.90;;;;;;6306544;22;38412;-80
2023/01/10 08:20:56;;;;;;;39.03;5.37;;;6.50;99.90;;;;;;6338753;22;38681;-81
2023/01/10 08:23:29;;;;;;;35.07;5.77;;;6.50;99.90;;;;;;6280870;22;37397;-80
2023/01/10 08:26:22;;;;;;;27.65;4.70;;;6.50;99.90;;;;;;6342479;22;40109;-81
2023/01/10 08:28:55;;;;;;;31.47;5.50;;;6.60;99.90;;;;;;6306542;22;40028;-80
2023/01/10 08:31:22;;;;;;;27.77;5.07;;;6.60;99.90;;;;;;6328366;22;38401;-80
2023/01/10 08:33:48;;;;;;;33.73;5.20;;;6.60;99.90;;;;;;6329547;22;37450;-79
2023/01/10 08:36:16;;;;;;;40.50;6.13;;;6.50;99.90;;;;;;6320043;22;38529;-79
2023/01/10 08:38:42;;;;;;;35.43;5.50;;;6.50;99.90;;;;;;6291894;22;37442;-79
2023/01/10 08:41:08;;;;;;;32.10;5.00;;;6.60;99.90;;;;;;6289989;22;38239;-80
2023/01/10 08:43:35;;;;;;;34.07;5.40;;;6.60;99.90;;;;;;6316256;22;36805;-80
2023/01/10 08:46:01;;;;;;;25.67;4.77;;;6.60;99.90;;;;;;6316767;22;38494;-79
2023/01/10 08:48:27;;;;;;;32.87;6.00;;;6.70;99.90;;;;;;6292910;22;47143;-80
2023/01/10 08:50:54;;;;;;;38.97;5.73;;;6.70;99.90;;;;;;6293876;22;38264;-80
2023/01/10 08:53:20;;;;;;;30.37;5.27;;;6.70;99.90;;;;;;6287915;22;36235;-80
2023/01/10 08:55:48;;;;;;;27.37;5.20;;;6.70;99.90;;;;;;6324109;22;38494;-80
2023/01/10 08:58:14;;;;;;;26.00;4.30;;;6.70;99.90;;;;;;6298160;22;36990;-79
2023/01/10 09:00:41;;;;;;;37.07;5.70;;;6.70;99.90;;;;;;6291038;22;37797;-80
2023/01/10 09:03:10;;;;;;;44.43;6.93;;;6.70;99.90;;;;;;6293593;22;36343;-80
2023/01/10 09:05:37;;;;;;;29.57;5.40;;;6.70;99.90;;;;;;6301003;22;38204;-81
2023/01/10 09:08:46;;;;;;;35.67;6.40;;;6.70;99.90;;;;;;6338261;22;39954;-80
2023/01/10 09:21:56;;;;;;;31.53;6.13;;;6.60;99.90;;;;;;6314473;22;20047;-82
2023/01/10 09:29:44;;;;;;;40.27;6.30;;;6.60;99.90;;;;;;6246489;22;20154;-82
2023/01/10 09:32:38;;;;;;;29.00;5.40;;;6.50;99.90;;;;;;6342502;22;37966;-82
2023/01/10 09:35:13;;;;;;;33.03;5.80;;;6.50;99.90;;;;;;6284119;22;50499;-81
2023/01/10 09:38:21;;;;;;;23.50;5.13;;;6.50;99.90;;;;;;6333895;22;40298;-80
2023/01/10 09:41:35;;;;;;;35.17;4.73;;;6.50;99.90;;;;;;6265832;22;50177;-80
2023/01/10 09:47:15;;;;;;;30.93;6.80;;;6.50;99.90;;;;;;6284396;22;20015;-83
2023/01/10 09:50:11;;;;;;;36.13;6.87;;;6.50;99.90;;;;;;6267985;22;47543;-82
2023/01/10 09:52:43;;;;;;;29.60;6.07;;;6.60;99.90;;;;;;6252724;22;49706;-80
2023/01/10 10:29:46;;;;;;;26.80;6.10;;;6.60;99.90;;;;;;6307783;22;20856;-82
2023/01/10 10:32:37;;;;;;;34.60;5.30;;;6.70;99.90;;;;;;6317390;22;48921;-81
2023/01/10 10:35:28;;;;;;;25.10;5.47;;;6.70;99.90;;;;;;6289079;22;37580;-81
2023/01/10 11:01:33;;;;;;;39.23;5.93;;;7.00;99.90;;;;;;6317888;22;20018;-81
2023/01/10 11:04:07;;;;;;;29.70;4.87;;;7.00;99.90;;;;;;6310125;22;38585;-80
2023/01/10 11:31:22;;;;;;;37.60;6.10;;;7.50;99.90;;;;;;6246498;22;20007;-81
2023/01/10 11:39:39;;;;;;;30.03;4.67;;;7.60;99.90;;;;;;6243638;22;20053;-79
2023/01/10 11:45:34;;;;;;;30.37;4.70;;;7.60;99.90;;;;;;6267691;22;20031;-81
2023/01/10 11:51:41;;;;;;;24.00;4.83;;;7.70;99.90;;;;;;6314134;22;20008;-81
2023/01/10 12:02:43;;;;;;;21.30;3.87;;;7.80;99.90;;;;;;6249925;22;21595;-79
2023/01/10 12:05:17;;;;;;;29.33;5.20;;;7.90;99.90;;;;;;6247118;22;38658;-80
2023/01/10 13:10:03;;;;;;;27.90;4.90;;;7.50;99.90;;;;;;6278609;22;20065;-82
2023/01/10 13:12:44;;;;;;;29.73;5.57;;;7.50;99.90;;;;;;6275197;22;36896;-82
2023/01/10 13:15:20;;;;;;;27.37;4.87;;;7.50;99.90;;;;;;6276301;22;39365;-80
2023/01/10 13:18:22;;;;;;;22.10;4.20;;;7.40;99.90;;;;;;6278783;22;39811;-80
2023/01/10 13:23:32;;;;;;;25.67;5.05;;;7.40;99.90;;;;;;6304707;22;20016;-80
2023/01/10 13:26:03;;;;;;;31.17;5.57;;;7.40;99.90;;;;;;6325965;22;38926;-80
2023/01/10 13:28:32;;;;;;;36.63;5.20;;;7.50;99.90;;;;;;6323855;22;49438;-81
2023/01/10 13:31:01;;;;;;;22.07;5.33;;;7.50;99.90;;;;;;6305990;22;36035;-81
2023/01/10 13:33:34;;;;;;;25.47;5.07;;;7.40;99.90;;;;;;6319579;22;47926;-81
2023/01/10 13:36:29;;;;;;;21.23;3.87;;;7.40;99.90;;;;;;6327665;22;38135;-80
2023/01/10 13:39:01;;;;;;;25.03;4.23;;;7.40;99.90;;;;;;6323024;22;49117;-81
2023/01/10 13:45:00;;;;;;;36.80;5.38;;;7.40;99.90;;;;;;6326557;22;50767;-80
2023/01/10 13:47:39;;;;;;;27.87;4.63;;;7.40;99.90;;;;;;6324627;22;40203;-80
2023/01/10 13:50:41;;;;;;;27.20;4.13;;;7.40;99.90;;;;;;6327385;22;37579;-80
2023/01/10 13:53:11;;;;;;;30.97;5.00;;;7.50;99.90;;;;;;6326127;22;39238;-80
2023/01/10 13:55:37;;;;;;;27.83;3.93;;;7.40;99.90;;;;;;6333969;22;36164;-81
2023/01/10 13:58:03;;;;;;;19.80;4.17;;;7.50;99.90;;;;;;6336118;22;37692;-82
2023/01/10 14:03:38;;;;;;;21.63;4.17;;;7.50;99.90;;;;;;6335119;22;38436;-81
2023/01/10 14:06:26;;;;;;;17.23;3.90;;;7.50;99.90;;;;;;6338072;22;40040;-82
2023/01/10 14:09:03;;;;;;;28.53;4.33;;;7.50;99.90;;;;;;6336539;22;38967;-81
2023/01/10 14:11:51;;;;;;;22.77;4.23;;;7.50;99.90;;;;;;6332253;22;47435;-81
2023/01/10 14:14:31;;;;;;;24.83;4.67;;;7.50;99.90;;;;;;6331768;22;38003;-82
2023/01/10 14:17:27;;;;;;;21.63;4.63;;;7.50;99.90;;;;;;6334651;22;37997;-80
2023/01/10 14:20:19;;;;;;;20.37;4.40;;;7.40;99.90;;;;;;6300879;22;47646;-81
2023/01/10 14:23:02;;;;;;;25.97;4.60;;;7.40;99.90;;;;;;6323098;22;46885;-81
2023/01/10 14:25:32;;;;;;;;;;;7.40;99.90;;;;;;6329480;22;47322;-80
2023/01/10 14:27:59;;;;;;;24.47;4.40;;;7.40;99.90;;;;;;6329123;22;36448;-80
2023/01/10 14:30:31;;;;;;;17.77;4.30;;;7.40;99.90;;;;;;6325997;22;39158;-81
2023/01/10 14:33:06;;;;;;;22.95;4.82;;;7.40;99.90;;;;;;6328417;22;39723;-81
2023/01/10 14:35:41;;;;;;;28.77;5.00;;;7.40;99.90;;;;;;6327733;22;47031;-81
2023/01/10 14:38:15;;;;;;;20.30;5.07;;;7.40;99.90;;;;;;6328928;22;35958;-82
2023/01/10 14:40:47;;;;;;;29.10;5.70;;;7.40;99.90;;;;;;6330268;22;39440;-81
2023/01/10 14:43:21;;;;;;;20.65;5.10;;;7.40;99.90;;;;;;6325135;22;37689;-81
2023/01/10 14:46:05;;;;;;;23.53;4.70;;;7.30;99.90;;;;;;6322524;22;37052;-80
2023/01/10 14:48:38;;;;;;;17.13;5.17;;;7.40;99.90;;;;;;6322450;22;48306;-79
2023/01/10 14:51:24;;;;;;;26.00;6.33;;;7.30;99.90;;;;;;6331945;22;40314;-81
2023/01/10 14:54:11;;;;;;;23.17;6.37;;;7.30;99.90;;;;;;6320241;22;38702;-80
2023/01/10 14:56:43;;;;;;;28.70;6.03;;;7.30;99.90;;;;;;6319591;22;48751;-81
2023/01/10 14:59:28;;;;;;;19.67;5.13;;;7.30;99.90;;;;;;6321384;22;39926;-80
2023/01/10 15:02:13;;;;;;;27.00;5.43;;;7.20;99.90;;;;;;6317909;22;20027;-81
2023/01/10 15:04:56;;;;;;;19.93;5.73;;;7.20;99.90;;;;;;6313125;22;46890;-79
2023/01/10 15:07:25;;;;;;;22.50;7.13;;;7.30;99.90;;;;;;6316826;22;37355;-80
2023/01/10 15:09:56;;;;;;;14.30;4.87;;;7.30;99.90;;;;;;6315198;22;36079;-80
2023/01/10 15:12:26;;;;;;;21.27;5.93;;;7.30;99.90;;;;;;6318032;22;39501;-79
2023/01/10 15:15:00;;;;;;;15.13;5.27;;;7.30;99.90;;;;;;6318570;22;39195;-81
2023/01/10 15:17:26;;;;;;;19.67;5.17;;;7.20;99.90;;;;;;6318776;22;39020;-81
2023/01/10 15:19:53;;;;;;;15.97;5.63;;;7.20;99.90;;;;;;6318145;22;35877;-80
2023/01/10 15:22:26;;;;;;;12.70;5.03;;;7.20;99.90;;;;;;6316094;22;37847;-81
2023/01/10 15:25:01;;;;;;;21.90;4.88;;;7.30;99.90;;;;;;6328042;22;38648;-82
2023/01/10 15:27:27;;;;;;;22.37;4.77;;;7.30;99.90;;;;;;6285317;22;36815;-81
2023/01/10 15:29:54;;;;;;;11.03;4.60;;;7.30;99.90;;;;;;6325453;22;36466;-80
2023/01/10 15:32:27;;;;;;;13.23;4.23;;;7.30;99.90;;;;;;6327977;22;38558;-80
2023/01/10 15:34:55;;;;;;;13.13;3.57;;;7.30;99.90;;;;;;6325270;22;39468;-79
2023/01/10 15:37:26;;;;;;;12.70;3.90;;;7.30;99.90;;;;;;6323301;22;37219;-80
2023/01/10 15:39:53;;;;;;;15.63;4.60;;;7.30;99.90;;;;;;6325634;22;36419;-80
2023/01/10 15:42:21;;;;;;;12.33;4.43;;;7.30;99.90;;;;;;6324789;22;38011;-80
2023/01/10 15:44:51;;;;;;;9.73;3.73;;;7.30;99.90;;;;;;6325521;22;38097;-80
2023/01/10 15:47:48;;;;;;;20.60;5.27;;;7.30;99.90;;;;;;6323310;22;37483;-80
2023/01/10 15:50:20;;;;;;;11.90;4.43;;;7.40;99.90;;;;;;6320054;22;36813;-80
2023/01/10 15:52:52;;;;;;;12.38;5.88;;;7.30;99.90;;;;;;6328159;22;38478;-80
2023/01/10 15:55:40;;;;;;;11.50;4.45;;;7.40;99.90;;;;;;6323070;22;38921;-80
2023/01/10 15:58:29;;;;;;;10.33;5.03;;;7.40;99.90;;;;;;6289006;22;37234;-80
2023/01/10 16:00:57;;;;;;;11.90;5.10;;;7.40;99.90;;;;;;6318247;22;36585;-79
2023/01/10 16:03:36;;;;;;;10.50;4.50;;;7.40;99.90;;;;;;6317654;22;38882;-80
2023/01/10 16:06:08;;;;;;;8.23;4.40;;;7.40;99.90;;;;;;6323436;22;36890;-80
2023/01/10 16:08:37;;;;;;;20.08;5.97;;;7.50;99.90;;;;;;6316169;22;36573;-79
2023/01/10 16:13:25;;;;;;;10.07;4.77;;;7.50;99.90;;;;;;6314734;22;36184;-80
2023/01/10 16:14:02;;;;;;;6.13;4.37;;;7.50;99.90;;;;;;6317066;22;38889;-80
2023/01/10 16:16:28;;;;;;;10.87;4.57;;;7.50;99.90;;;;;;6323439;22;37836;-80
2023/01/10 16:18:55;;;;;;;6.00;4.63;;;7.60;99.90;;;;;;6332268;22;36757;-80
2023/01/10 16:21:22;;;;;;;3.87;3.10;;;7.60;99.90;;;;;;6322724;22;38480;-80
2023/01/10 16:23:48;;;;;;;6.57;3.07;;;7.70;99.90;;;;;;6324708;22;39572;-80
2023/01/10 16:26:15;;;;;;;6.20;3.47;;;7.70;99.90;;;;;;6324078;22;38402;-81
2023/01/10 16:28:41;;;;;;;8.30;3.67;;;7.70;99.90;;;;;;6318826;22;36848;-80
2023/01/10 16:31:13;;;;;;;3.87;3.47;;;7.70;99.90;;;;;;6317687;22;36256;-79
2023/01/10 16:33:40;;;;;;;7.45;4.13;;;7.70;99.90;;;;;;6318965;22;37729;-80
2023/01/10 16:36:14;;;;;;;4.73;3.90;;;7.80;99.90;;;;;;6330110;22;38135;-81
2023/01/10 16:38:42;;;;;;;6.13;3.90;;;7.80;99.90;;;;;;6332006;22;37426;-80
2023/01/10 16:43:56;;;;;;;7.37;4.30;;;7.90;99.90;;;;;;6324734;22;39948;-80
2023/01/10 16:46:23;;;;;;;7.63;4.20;;;7.90;99.90;;;;;;6321071;22;37462;-81
2023/01/10 16:48:51;;;;;;;5.93;4.23;;;7.90;99.90;;;;;;6314927;22;37573;-81
2023/01/10 16:51:20;;;;;;;7.77;4.23;;;8.00;99.90;;;;;;6315130;22;37029;-81
2023/01/10 16:53:47;;;;;;;4.67;3.30;;;8.00;99.90;;;;;;6313208;22;37287;-79
2023/01/10 16:56:15;;;;;;;6.53;3.70;;;8.10;99.90;;;;;;6309132;22;37922;-80
2023/01/10 16:58:41;;;;;;;5.53;3.67;;;8.10;99.90;;;;;;6314165;22;37839;-80
2023/01/10 17:01:25;;;;;;;5.07;3.60;;;8.20;99.90;;;;;;6324369;22;38078;-80
2023/01/10 17:03:52;;;;;;;5.70;4.30;;;8.20;99.90;;;;;;6326951;22;39345;-81
2023/01/10 17:06:27;;;;;;;8.03;4.70;;;8.30;99.90;;;;;;6324997;22;39105;-81
2023/01/10 17:08:53;;;;;;;8.30;4.40;;;8.30;99.90;;;;;;6331062;22;38142;-81
2023/01/10 17:11:30;;;;;;;12.43;5.00;;;8.40;99.90;;;;;;6326302;22;37463;-80
2023/01/10 17:13:57;;;;;;;6.07;3.97;;;8.40;99.90;;;;;;6322507;22;38065;-79
2023/01/10 17:16:23;;;;;;;6.90;4.17;;;8.40;99.90;;;;;;6321046;22;37214;-80
2023/01/10 17:18:49;;;;;;;6.10;4.47;;;8.40;99.90;;;;;;6305526;22;36564;-81
2023/01/10 17:21:20;;;;;;;7.13;4.67;;;8.50;99.90;;;;;;6320817;22;36891;-80
2023/01/10 17:23:47;;;;;;;6.80;4.57;;;8.50;99.90;;;;;;6318304;22;39197;-80
2023/01/10 17:26:15;;;;;;;7.67;4.37;;;8.50;99.90;;;;;;6320721;22;38882;-80
2023/01/10 17:28:43;;;;;;;9.37;4.80;;;8.50;99.90;;;;;;6346355;22;36923;-79